-> Other stations

1455

Speed(max): 10.8(13.5)knots
Direction:28° ( NNE)
Temperature: 28.5°C
Arrived: 2026-09-01 12:33:13 CEST

Past data:
hh:mmknots
Dir (°)
°C
12:31 11.9 14.6 NNE(23) 28.5
12:29 11.9 14.6 NNE(29) 28.3
12:27 11.9 15.1 NNE(19) 28.3
12:25 13 15.1 NNE(18) 28.5
12:23 13 15.1 NNE(24) 28.3
12:21 12.4 15.1 NNE(21) 28.2
12:19 15.1 17.8 NNE(18) 28.2
12:17 14.6 17.8 NNE(20) 28.3
12:15 15.7 20 NNE(17) 28.5
12:13 15.1 17.3 NNE(15) 28.7
12:11 15.1 17.8 NNE(24) 28.7
12:09 13.5 17.8 NNE(31) 29.0
12:07 11.9 14 NNE(32) 29.3
12:05 13.5 15.1 NNE(25) 29.5
15 min. averages:
hh:mmknots
Dir (°)
°C
12:30 13.5 20 NNE(21) 28.3
12:15 13.5 17.8 NNE(27) 29.2
12:00 11.9 15.1 NNE(25) 29.3
11:45 11.3 15.1 NNE(23) 28.4
11:30 11.3 14 NNE(28) 29.8
11:15 11.3 14.6 NE(35) 28.8
11:00 12.4 16.7 NE(41) 28.5
10:45 11.9 15.1 NE(35) 28.2
10:30 14 20 NE(35) 28.7
10:15 14 17.8 NE(36) 28.8
10:00 15.1 18.9 NE(43) 29.1
09:45 15.1 18.4 NE(43) 28.9
09:30 15.1 18.9 NE(42) 28.7
09:15 15.7 20.5 NE(39) 28.5
09:00 15.1 20.5 NNE(29) 28.2
Stations at HR:
1455
-> Other regions

Desktop view
Data provided by Holfuy.
© Holfuy Weather 2026